createdAt,value
2022-10-19T00:03:35.928Z,16.60
2022-10-19T00:08:38.919Z,16.90
2022-10-19T00:13:41.955Z,17.10
2022-10-19T00:18:46.402Z,17.00
2022-10-19T00:23:50.091Z,16.90
2022-10-19T00:28:54.439Z,16.90
2022-10-19T00:33:59.540Z,16.50
2022-10-19T00:39:03.635Z,16.60
2022-10-19T00:44:09.043Z,16.70
2022-10-19T00:49:20.396Z,16.80
2022-10-19T00:54:26.514Z,16.70
2022-10-19T00:59:31.745Z,16.70
2022-10-19T01:04:38.920Z,16.50
2022-10-19T01:09:41.907Z,16.60
2022-10-19T01:14:58.983Z,16.70
2022-10-19T01:20:33.162Z,16.60
2022-10-19T01:25:48.924Z,16.40
2022-10-19T01:30:58.722Z,16.30
2022-10-19T01:36:09.025Z,16.30
2022-10-19T01:41:18.668Z,16.20
2022-10-19T01:46:29.787Z,16.10
2022-10-19T01:51:36.500Z,15.80
2022-10-19T01:56:42.939Z,15.60
2022-10-19T02:01:50.739Z,15.80
2022-10-19T02:06:55.258Z,15.80
2022-10-19T02:12:01.594Z,15.80
2022-10-19T02:17:10.046Z,15.80
2022-10-19T02:22:13.894Z,15.70
2022-10-19T02:27:17.220Z,15.60
2022-10-19T02:32:21.671Z,15.70
2022-10-19T02:37:25.755Z,15.70
2022-10-19T02:42:33.719Z,15.80
2022-10-19T02:47:43.283Z,15.80
2022-10-19T02:52:46.228Z,15.90
2022-10-19T02:57:49.123Z,16.10
2022-10-19T03:02:53.495Z,16.10
2022-10-19T03:07:56.394Z,16.20
2022-10-19T03:12:59.565Z,16.30
2022-10-19T03:18:03.746Z,16.20
2022-10-19T03:23:06.649Z,16.20
2022-10-19T03:28:09.526Z,16.10
2022-10-19T03:33:13.850Z,16.20
2022-10-19T03:38:17.044Z,16.20
2022-10-19T03:43:19.916Z,16.20
2022-10-19T03:48:24.224Z,16.10
2022-10-19T03:53:27.338Z,16.20
2022-10-19T03:58:30.302Z,16.10
2022-10-19T04:08:42.664Z,15.90
2022-10-19T04:13:45.548Z,16.00
2022-10-19T04:18:50.187Z,16.00
2022-10-19T04:23:54.398Z,16.00
2022-10-19T04:28:59.197Z,16.00
2022-10-19T04:34:03.654Z,15.90
2022-10-19T04:39:07.747Z,16.00
2022-10-19T04:44:11.260Z,16.10
2022-10-19T04:49:18.017Z,16.10
2022-10-19T04:54:23.251Z,16.10
2022-10-19T04:59:26.466Z,16.10
2022-10-19T05:04:30.712Z,16.20
2022-10-19T05:09:33.600Z,16.20
2022-10-19T05:14:39.029Z,16.30
2022-10-19T05:19:46.300Z,16.30
2022-10-19T05:24:49.254Z,16.30
2022-10-19T05:29:52.086Z,16.30
2022-10-19T05:34:56.434Z,16.30
2022-10-19T05:39:59.319Z,16.30
2022-10-19T05:45:02.279Z,16.40
2022-10-19T05:50:07.284Z,16.40
2022-10-19T05:55:10.794Z,16.40
2022-10-19T06:00:15.162Z,16.50
2022-10-19T06:05:19.448Z,16.50
2022-10-19T06:10:22.663Z,16.50
2022-10-19T06:15:25.535Z,16.50
2022-10-19T06:20:29.775Z,16.50
2022-10-19T06:25:33.059Z,16.50
2022-10-19T06:30:39.111Z,16.50
2022-10-19T06:35:43.418Z,16.50
2022-10-19T06:40:46.346Z,16.50
2022-10-19T06:45:49.226Z,16.40
2022-10-19T06:50:58.930Z,16.40
2022-10-19T06:56:03.781Z,16.40
2022-10-19T07:01:08.489Z,16.20
2022-10-19T07:06:14.026Z,16.00
2022-10-19T07:11:18.823Z,16.00
2022-10-19T07:16:22.029Z,16.10
2022-10-19T07:21:26.325Z,15.80
2022-10-19T07:26:30.497Z,16.00
2022-10-19T07:31:33.802Z,16.10
2022-10-19T07:36:38.062Z,16.20
2022-10-19T07:41:41.300Z,16.40
2022-10-19T07:46:44.451Z,16.10
2022-10-19T07:51:48.872Z,16.10
2022-10-19T07:56:51.769Z,16.40
2022-10-19T08:01:55.870Z,16.40
2022-10-19T08:07:00.218Z,16.50
2022-10-19T08:12:03.198Z,16.60
2022-10-19T08:17:06.063Z,16.60
2022-10-19T08:22:10.742Z,16.80
2022-10-19T08:27:14.771Z,16.70
2022-10-19T08:32:17.655Z,16.60
2022-10-19T08:37:39.985Z,16.60
2022-10-19T08:42:50.445Z,16.60
2022-10-19T08:48:28.832Z,16.50
2022-10-19T08:53:40.755Z,16.60
2022-10-19T08:58:54.577Z,16.60
2022-10-19T09:04:03.357Z,16.80
2022-10-19T09:09:07.827Z,16.90
2022-10-19T09:14:15.872Z,16.90
2022-10-19T09:19:25.444Z,17.10
2022-10-19T09:24:35.968Z,17.20
2022-10-19T09:29:43.086Z,17.20
2022-10-19T09:34:48.653Z,17.40
2022-10-19T09:39:54.850Z,17.30
2022-10-19T09:45:01.393Z,17.50
2022-10-19T09:50:19.050Z,17.60
2022-10-19T09:55:29.235Z,17.80
2022-10-19T10:00:42.238Z,17.70
2022-10-19T10:05:48.810Z,17.90
2022-10-19T10:11:01.630Z,18.10
2022-10-19T10:16:07.420Z,18.00
2022-10-19T10:21:14.966Z,18.10
2022-10-19T10:26:20.457Z,18.20
2022-10-19T10:31:27.009Z,18.30
2022-10-19T10:36:31.279Z,18.30
2022-10-19T10:41:41.373Z,18.60
2022-10-19T10:46:51.325Z,18.70
2022-10-19T10:51:56.968Z,18.80
2022-10-19T10:57:14.161Z,19.00
2022-10-19T11:02:29.104Z,19.10
2022-10-19T11:07:34.685Z,19.00
2022-10-19T11:12:42.366Z,19.10
2022-10-19T11:17:55.625Z,19.10
2022-10-19T11:23:08.543Z,19.40
2022-10-19T11:28:29.013Z,19.60
2022-10-19T11:33:44.474Z,19.80
2022-10-19T11:38:55.071Z,19.80
2022-10-19T11:44:08.668Z,19.90
2022-10-19T11:49:23.918Z,20.00
2022-10-19T11:54:39.799Z,20.00
2022-10-19T12:00:13.637Z,20.00
2022-10-19T12:05:26.394Z,20.10
2022-10-19T12:10:35.096Z,20.00
2022-10-19T12:15:44.362Z,20.10
2022-10-19T12:20:50.845Z,20.20
2022-10-19T12:25:57.362Z,20.30
2022-10-19T12:31:03.652Z,20.20
2022-10-19T12:36:20.863Z,20.10
2022-10-19T12:41:28.238Z,20.20
2022-10-19T12:46:40.648Z,20.50
2022-10-19T12:51:47.189Z,20.40
2022-10-19T12:56:51.951Z,20.40
2022-10-19T13:01:57.131Z,20.40
2022-10-19T13:07:02.673Z,20.50
2022-10-19T13:12:28.242Z,20.50
2022-10-19T13:17:43.887Z,20.80
2022-10-19T13:22:48.904Z,20.80
2022-10-19T13:27:53.199Z,20.90
2022-10-19T13:32:57.567Z,20.90
2022-10-19T13:38:28.667Z,20.90
2022-10-19T13:43:34.695Z,21.00
2022-10-19T13:48:57.092Z,21.00
2022-10-19T13:54:09.064Z,21.00
2022-10-19T13:59:39.048Z,21.20
2022-10-19T14:04:51.652Z,21.20
2022-10-19T14:10:07.868Z,21.20
2022-10-19T14:15:23.356Z,21.30
2022-10-19T14:20:31.370Z,21.20
2022-10-19T14:25:34.330Z,21.20
2022-10-19T14:30:37.961Z,21.20
2022-10-19T14:35:44.964Z,21.10
2022-10-19T14:40:47.913Z,21.20
2022-10-19T14:46:12.375Z,21.00
2022-10-19T14:51:37.376Z,20.80
2022-10-19T14:56:44.588Z,20.60
2022-10-19T15:01:51.022Z,20.50
2022-10-19T15:06:57.111Z,20.60
2022-10-19T15:12:07.236Z,20.70
2022-10-19T15:17:24.660Z,20.70
2022-10-19T15:22:40.169Z,20.60
2022-10-19T15:27:47.070Z,20.40
2022-10-19T15:32:52.128Z,20.50
2022-10-19T15:38:03.950Z,20.70
2022-10-19T15:43:35.701Z,20.80
2022-10-19T15:48:55.453Z,20.80
2022-10-19T15:54:01.750Z,20.80
2022-10-19T15:59:06.768Z,20.70
2022-10-19T16:04:09.916Z,20.70
2022-10-19T16:09:20.151Z,20.40
2022-10-19T16:14:22.999Z,20.50
2022-10-19T16:19:25.960Z,20.20
2022-10-19T16:24:30.214Z,20.20
2022-10-19T16:29:40.410Z,20.20
2022-10-19T16:34:43.286Z,20.20
2022-10-19T16:39:47.504Z,20.10
2022-10-19T16:44:50.395Z,20.00
2022-10-19T16:49:59.012Z,19.90
2022-10-19T16:55:07.424Z,19.90
2022-10-19T17:00:11.300Z,19.80
2022-10-19T17:05:15.436Z,19.70
2022-10-19T17:10:19.705Z,19.50
2022-10-19T17:15:42.991Z,19.40
2022-10-19T17:20:45.507Z,19.40
2022-10-19T17:25:50.418Z,19.00
2022-10-19T17:30:53.709Z,19.30
2022-10-19T17:35:57.376Z,19.10
2022-10-19T17:41:05.398Z,19.10
2022-10-19T17:46:10.227Z,18.80
2022-10-19T17:51:16.476Z,18.60
2022-10-19T17:56:22.248Z,18.70
2022-10-19T18:01:26.887Z,18.70
2022-10-19T18:06:32.516Z,18.60
2022-10-19T18:11:38.751Z,18.50
2022-10-19T18:16:44.664Z,18.40
2022-10-19T18:21:49.128Z,18.30
2022-10-19T18:26:53.406Z,18.20
2022-10-19T18:31:56.561Z,18.20
2022-10-19T18:36:59.486Z,18.10
2022-10-19T18:42:03.767Z,18.10
2022-10-19T18:47:06.668Z,18.00
2022-10-19T18:52:09.548Z,17.90
2022-10-19T18:57:13.804Z,17.80
2022-10-19T19:02:34.996Z,17.70
2022-10-19T19:07:39.601Z,17.70
2022-10-19T19:12:51.351Z,17.70
2022-10-19T19:17:55.502Z,17.10
2022-10-19T19:22:58.341Z,17.30
2022-10-19T19:28:11.578Z,17.30
2022-10-19T19:33:15.207Z,17.30
2022-10-19T19:38:18.099Z,17.30
2022-10-19T19:43:22.391Z,17.20
2022-10-19T19:48:25.551Z,17.10
2022-10-19T19:53:28.463Z,17.00
2022-10-19T19:58:32.744Z,17.10
2022-10-19T20:03:51.119Z,17.10
2022-10-19T20:09:13.050Z,17.10
2022-10-19T20:14:18.663Z,17.20
2022-10-19T20:19:21.674Z,17.70
2022-10-19T20:24:24.518Z,17.40
2022-10-19T20:29:28.811Z,16.90
2022-10-19T20:34:31.763Z,16.80
2022-10-19T20:39:41.880Z,16.90
2022-10-19T20:44:46.250Z,16.90
2022-10-19T20:49:49.483Z,16.80
2022-10-19T20:54:52.542Z,16.50
2022-10-19T20:59:56.780Z,16.30
2022-10-19T21:04:59.636Z,16.50
2022-10-19T21:10:02.530Z,16.40
2022-10-19T21:15:07.747Z,16.50
2022-10-19T21:20:11.113Z,16.30
2022-10-19T21:25:14.120Z,16.30
2022-10-19T21:30:18.527Z,16.60
2022-10-19T21:35:21.420Z,15.90
2022-10-19T21:40:24.295Z,16.10
2022-10-19T21:45:30.813Z,16.10
2022-10-19T21:50:35.059Z,16.10
2022-10-19T21:55:38.556Z,15.90
2022-10-19T22:00:50.274Z,15.80
2022-10-19T22:05:53.563Z,15.80
2022-10-19T22:10:56.435Z,15.80
2022-10-19T22:16:06.015Z,15.30
2022-10-19T22:21:10.903Z,15.40
2022-10-19T22:26:15.061Z,15.50
2022-10-19T22:31:19.632Z,15.60
2022-10-19T22:36:22.864Z,15.70
2022-10-19T22:41:25.731Z,15.60
2022-10-19T22:46:29.937Z,15.40
2022-10-19T22:51:33.085Z,15.40
2022-10-19T22:56:36.091Z,15.60
2022-10-19T23:01:40.424Z,15.50
2022-10-19T23:06:43.358Z,15.50
2022-10-19T23:11:46.235Z,15.40
2022-10-19T23:16:50.462Z,15.30
2022-10-19T23:21:53.372Z,15.30
2022-10-19T23:26:56.229Z,15.30
2022-10-19T23:32:00.451Z,15.20
2022-10-19T23:37:03.330Z,15.20
2022-10-19T23:42:06.231Z,15.30
2022-10-19T23:47:10.537Z,15.10
2022-10-19T23:52:13.458Z,15.00
2022-10-19T23:57:16.813Z,14.50
